To NAV CANADA Home Page Login to a new session Search on AWWS site Feedback and Comments Disclaimer Vers la page française équivalente Tips FAQ What's new on the site To the Forecasts and Observations / NOTAM section To "File a Flight Plan" website Publications and other links Update of the User's profile FIC Telephone Numbers My Weather Data Folder Route Weather Data Regional Weather Data Local Weather Data To the Forecasts and Observations / NOTAM section
Request Generated 08/04/2015 at 17:50:01 UTC . Weather information available at that time is displayed.

METAR/TAF

ST. JOHN'S/ST. JOHN'S INTL/NL    

METAR CYYT 041700Z 12013KT 15SM FEW028 FEW200 21/14 A3010 RMK CU1CI1
SLP193 DENSITY ALT 1000FT=
METAR CYYT 041600Z 13009KT 15SM FEW028 FEW200 22/15 A3011 RMK CU1CI1
SLP195 DENSITY ALT 1100FT=
METAR CYYT 041500Z 14010KT 15SM FEW028 FEW200 22/14 A3011 RMK CU1CI1
SLP197 DENSITY ALT 1100FT=

TAF CYYT 041738Z 0418/0518 12012KT P6SM FEW030
BECMG 0420/0422 18008KT
FM050000 20005KT P6SM SKC TEMPO 0500/0504 6SM BR FEW005
FM050400 16006KT 6SM BR FEW003 SCT030 TEMPO 0504/0506 2SM BR
BKN003 PROB40 0504/0506 1/2SM FG VV002
FM050600 16005KT 1/2SM FG VV002 TEMPO 0506/0511 2SM BR BKN003
FM051100 17010KT 2SM BR BKN003 TEMPO 0511/0513 6SM BR BKN006
FM051300 17012KT P6SM SCT008
BECMG 0516/0518 18012G22KT
RMK NXT FCST BY 050000Z=
Your time UTC time
Weather data provided by Environment Canada and NAV CANADA